sensor_id;sensor_type;location;lat;lon;timestamp;P1;durP1;ratioP1;P2;durP2;ratioP2
8401;SDS011;4238;48.404;9.498;2022-12-20T00:00:50;21.20;;;12.90;;
8401;SDS011;4238;48.404;9.498;2022-12-20T00:03:17;25.93;;;14.10;;
8401;SDS011;4238;48.404;9.498;2022-12-20T00:05:46;37.80;;;17.73;;
8401;SDS011;4238;48.404;9.498;2022-12-20T00:08:13;26.60;;;15.23;;
8401;SDS011;4238;48.404;9.498;2022-12-20T00:10:41;28.67;;;16.23;;
8401;SDS011;4238;48.404;9.498;2022-12-20T00:13:09;26.77;;;15.50;;
8401;SDS011;4238;48.404;9.498;2022-12-20T00:15:37;22.93;;;15.33;;
8401;SDS011;4238;48.404;9.498;2022-12-20T00:18:05;26.53;;;16.43;;
8401;SDS011;4238;48.404;9.498;2022-12-20T00:20:32;31.37;;;17.70;;
8401;SDS011;4238;48.404;9.498;2022-12-20T00:23:00;28.03;;;17.07;;
8401;SDS011;4238;48.404;9.498;2022-12-20T00:25:27;24.60;;;16.20;;
8401;SDS011;4238;48.404;9.498;2022-12-20T00:27:54;32.23;;;18.33;;
8401;SDS011;4238;48.404;9.498;2022-12-20T00:30:21;28.10;;;17.70;;
8401;SDS011;4238;48.404;9.498;2022-12-20T00:32:48;24.60;;;17.10;;
8401;SDS011;4238;48.404;9.498;2022-12-20T00:35:15;22.63;;;15.47;;
8401;SDS011;4238;48.404;9.498;2022-12-20T00:37:42;24.20;;;15.13;;
8401;SDS011;4238;48.404;9.498;2022-12-20T00:40:10;22.83;;;14.50;;
8401;SDS011;4238;48.404;9.498;2022-12-20T00:42:38;20.20;;;14.93;;
8401;SDS011;4238;48.404;9.498;2022-12-20T00:45:05;18.97;;;13.77;;
8401;SDS011;4238;48.404;9.498;2022-12-20T00:47:32;20.60;;;13.33;;
8401;SDS011;4238;48.404;9.498;2022-12-20T00:49:59;13.30;;;11.27;;
8401;SDS011;4238;48.404;9.498;2022-12-20T00:52:26;13.73;;;11.27;;
8401;SDS011;4238;48.404;9.498;2022-12-20T00:54:53;12.20;;;8.90;;
8401;SDS011;4238;48.404;9.498;2022-12-20T00:57:21;11.63;;;9.37;;
8401;SDS011;4238;48.404;9.498;2022-12-20T00:59:49;11.13;;;9.50;;
8401;SDS011;4238;48.404;9.498;2022-12-20T01:02:15;15.00;;;9.97;;
8401;SDS011;4238;48.404;9.498;2022-12-20T01:04:42;16.77;;;10.97;;
8401;SDS011;4238;48.404;9.498;2022-12-20T01:07:09;12.00;;;10.23;;
8401;SDS011;4238;48.404;9.498;2022-12-20T01:09:36;13.37;;;10.07;;
8401;SDS011;4238;48.404;9.498;2022-12-20T01:12:03;16.53;;;11.33;;
8401;SDS011;4238;48.404;9.498;2022-12-20T01:14:32;12.10;;;8.70;;
8401;SDS011;4238;48.404;9.498;2022-12-20T01:16:59;13.20;;;9.83;;
8401;SDS011;4238;48.404;9.498;2022-12-20T01:19:26;11.97;;;9.67;;
8401;SDS011;4238;48.404;9.498;2022-12-20T01:21:52;15.00;;;11.30;;
8401;SDS011;4238;48.404;9.498;2022-12-20T01:24:19;14.07;;;10.63;;
8401;SDS011;4238;48.404;9.498;2022-12-20T01:26:46;13.53;;;9.77;;
8401;SDS011;4238;48.404;9.498;2022-12-20T01:29:13;14.57;;;8.83;;
8401;SDS011;4238;48.404;9.498;2022-12-20T01:31:42;13.17;;;10.43;;
8401;SDS011;4238;48.404;9.498;2022-12-20T01:34:09;13.20;;;9.53;;
8401;SDS011;4238;48.404;9.498;2022-12-20T01:36:36;13.57;;;9.87;;
8401;SDS011;4238;48.404;9.498;2022-12-20T01:39:04;12.37;;;10.00;;
8401;SDS011;4238;48.404;9.498;2022-12-20T01:41:33;14.77;;;11.00;;
8401;SDS011;4238;48.404;9.498;2022-12-20T01:44:03;13.90;;;10.10;;
8401;SDS011;4238;48.404;9.498;2022-12-20T01:46:32;14.13;;;9.80;;
8401;SDS011;4238;48.404;9.498;2022-12-20T01:49:03;17.63;;;10.47;;
8401;SDS011;4238;48.404;9.498;2022-12-20T01:51:35;14.77;;;9.87;;
8401;SDS011;4238;48.404;9.498;2022-12-20T01:54:05;13.60;;;10.67;;
8401;SDS011;4238;48.404;9.498;2022-12-20T01:56:37;16.07;;;10.83;;
8401;SDS011;4238;48.404;9.498;2022-12-20T01:59:06;15.23;;;10.23;;
8401;SDS011;4238;48.404;9.498;2022-12-20T02:01:33;13.30;;;10.43;;
8401;SDS011;4238;48.404;9.498;2022-12-20T02:04:02;15.80;;;10.50;;
8401;SDS011;4238;48.404;9.498;2022-12-20T02:06:29;13.03;;;10.67;;
8401;SDS011;4238;48.404;9.498;2022-12-20T02:08:57;13.53;;;9.53;;
8401;SDS011;4238;48.404;9.498;2022-12-20T02:11:29;15.23;;;11.50;;
8401;SDS011;4238;48.404;9.498;2022-12-20T02:14:25;13.90;;;10.83;;
8401;SDS011;4238;48.404;9.498;2022-12-20T02:17:07;12.27;;;10.53;;
8401;SDS011;4238;48.404;9.498;2022-12-20T02:19:49;15.97;;;10.83;;
8401;SDS011;4238;48.404;9.498;2022-12-20T02:22:32;14.43;;;11.13;;
8401;SDS011;4238;48.404;9.498;2022-12-20T02:25:13;13.53;;;10.20;;
8401;SDS011;4238;48.404;9.498;2022-12-20T02:27:57;14.27;;;10.97;;
8401;SDS011;4238;48.404;9.498;2022-12-20T02:30:30;13.27;;;9.73;;
8401;SDS011;4238;48.404;9.498;2022-12-20T02:33:01;14.03;;;10.33;;
8401;SDS011;4238;48.404;9.498;2022-12-20T02:35:30;13.70;;;10.33;;
8401;SDS011;4238;48.404;9.498;2022-12-20T02:38:00;16.60;;;10.07;;
8401;SDS011;4238;48.404;9.498;2022-12-20T02:40:40;13.37;;;10.40;;
8401;SDS011;4238;48.404;9.498;2022-12-20T02:43:09;15.63;;;11.57;;
8401;SDS011;4238;48.404;9.498;2022-12-20T02:45:52;14.30;;;9.77;;
8401;SDS011;4238;48.404;9.498;2022-12-20T02:48:24;12.53;;;9.80;;
8401;SDS011;4238;48.404;9.498;2022-12-20T02:50:54;13.00;;;9.80;;
8401;SDS011;4238;48.404;9.498;2022-12-20T02:53:24;12.27;;;8.87;;
8401;SDS011;4238;48.404;9.498;2022-12-20T02:55:57;10.90;;;8.13;;
8401;SDS011;4238;48.404;9.498;2022-12-20T02:58:31;9.60;;;7.77;;
8401;SDS011;4238;48.404;9.498;2022-12-20T03:01:03;10.53;;;7.93;;
8401;SDS011;4238;48.404;9.498;2022-12-20T03:03:34;11.83;;;8.80;;
8401;SDS011;4238;48.404;9.498;2022-12-20T03:06:02;11.77;;;7.97;;
8401;SDS011;4238;48.404;9.498;2022-12-20T03:08:29;10.57;;;8.17;;
8401;SDS011;4238;48.404;9.498;2022-12-20T03:10:56;11.83;;;8.93;;
8401;SDS011;4238;48.404;9.498;2022-12-20T03:13:23;11.47;;;7.87;;
8401;SDS011;4238;48.404;9.498;2022-12-20T03:15:50;10.33;;;7.30;;
8401;SDS011;4238;48.404;9.498;2022-12-20T03:18:19;10.23;;;7.60;;
8401;SDS011;4238;48.404;9.498;2022-12-20T03:20:46;8.87;;;6.50;;
8401;SDS011;4238;48.404;9.498;2022-12-20T03:23:13;10.10;;;7.23;;
8401;SDS011;4238;48.404;9.498;2022-12-20T03:25:40;8.67;;;7.63;;
8401;SDS011;4238;48.404;9.498;2022-12-20T03:28:07;8.23;;;7.20;;
8401;SDS011;4238;48.404;9.498;2022-12-20T03:30:34;11.57;;;7.60;;
8401;SDS011;4238;48.404;9.498;2022-12-20T03:33:01;10.83;;;7.57;;
8401;SDS011;4238;48.404;9.498;2022-12-20T03:35:29;10.77;;;7.60;;
8401;SDS011;4238;48.404;9.498;2022-12-20T03:37:56;7.93;;;7.13;;
8401;SDS011;4238;48.404;9.498;2022-12-20T03:40:23;8.10;;;7.17;;
8401;SDS011;4238;48.404;9.498;2022-12-20T03:42:49;9.23;;;7.27;;
8401;SDS011;4238;48.404;9.498;2022-12-20T03:45:16;11.17;;;8.33;;
8401;SDS011;4238;48.404;9.498;2022-12-20T03:47:44;12.13;;;9.37;;
8401;SDS011;4238;48.404;9.498;2022-12-20T03:50:11;10.57;;;8.37;;
8401;SDS011;4238;48.404;9.498;2022-12-20T03:52:39;16.17;;;9.67;;
8401;SDS011;4238;48.404;9.498;2022-12-20T03:55:06;17.83;;;11.43;;
8401;SDS011;4238;48.404;9.498;2022-12-20T03:57:36;11.57;;;9.33;;
8401;SDS011;4238;48.404;9.498;2022-12-20T04:00:03;11.77;;;8.53;;
8401;SDS011;4238;48.404;9.498;2022-12-20T04:02:31;9.47;;;7.93;;
8401;SDS011;4238;48.404;9.498;2022-12-20T04:05:01;13.17;;;8.47;;
8401;SDS011;4238;48.404;9.498;2022-12-20T04:07:28;11.40;;;8.27;;
8401;SDS011;4238;48.404;9.498;2022-12-20T04:09:56;10.63;;;7.63;;
8401;SDS011;4238;48.404;9.498;2022-12-20T04:12:23;10.37;;;8.20;;
8401;SDS011;4238;48.404;9.498;2022-12-20T04:14:50;11.47;;;8.57;;
8401;SDS011;4238;48.404;9.498;2022-12-20T04:17:17;11.43;;;8.50;;
8401;SDS011;4238;48.404;9.498;2022-12-20T04:19:44;10.70;;;8.30;;
8401;SDS011;4238;48.404;9.498;2022-12-20T04:22:11;12.90;;;9.23;;
8401;SDS011;4238;48.404;9.498;2022-12-20T04:24:38;12.70;;;9.30;;
8401;SDS011;4238;48.404;9.498;2022-12-20T04:27:06;13.00;;;8.70;;
8401;SDS011;4238;48.404;9.498;2022-12-20T04:29:33;12.97;;;8.77;;
8401;SDS011;4238;48.404;9.498;2022-12-20T04:32:00;10.83;;;9.43;;
8401;SDS011;4238;48.404;9.498;2022-12-20T04:34:27;12.37;;;8.90;;
8401;SDS011;4238;48.404;9.498;2022-12-20T04:36:53;13.43;;;8.37;;
8401;SDS011;4238;48.404;9.498;2022-12-20T04:39:20;13.10;;;10.70;;
8401;SDS011;4238;48.404;9.498;2022-12-20T04:41:47;15.73;;;11.00;;
8401;SDS011;4238;48.404;9.498;2022-12-20T04:44:16;13.73;;;10.63;;
8401;SDS011;4238;48.404;9.498;2022-12-20T04:46:43;15.03;;;10.30;;
8401;SDS011;4238;48.404;9.498;2022-12-20T04:49:09;13.13;;;10.03;;
8401;SDS011;4238;48.404;9.498;2022-12-20T04:51:36;14.03;;;9.50;;
8401;SDS011;4238;48.404;9.498;2022-12-20T04:54:03;14.10;;;10.47;;
8401;SDS011;4238;48.404;9.498;2022-12-20T04:56:29;14.27;;;9.80;;
8401;SDS011;4238;48.404;9.498;2022-12-20T04:58:57;12.20;;;9.40;;
8401;SDS011;4238;48.404;9.498;2022-12-20T05:01:26;12.77;;;9.70;;
8401;SDS011;4238;48.404;9.498;2022-12-20T05:03:53;12.70;;;9.33;;
8401;SDS011;4238;48.404;9.498;2022-12-20T05:06:20;13.33;;;9.30;;
8401;SDS011;4238;48.404;9.498;2022-12-20T05:08:47;12.53;;;9.67;;
8401;SDS011;4238;48.404;9.498;2022-12-20T05:11:14;15.60;;;10.07;;
8401;SDS011;4238;48.404;9.498;2022-12-20T05:13:41;12.33;;;9.33;;
8401;SDS011;4238;48.404;9.498;2022-12-20T05:16:08;14.73;;;9.70;;
8401;SDS011;4238;48.404;9.498;2022-12-20T05:18:36;13.37;;;9.90;;
8401;SDS011;4238;48.404;9.498;2022-12-20T05:21:03;14.90;;;10.67;;
8401;SDS011;4238;48.404;9.498;2022-12-20T05:24:02;14.60;;;10.90;;
8401;SDS011;4238;48.404;9.498;2022-12-20T05:26:47;17.80;;;12.17;;
8401;SDS011;4238;48.404;9.498;2022-12-20T05:29:14;16.17;;;11.33;;
8401;SDS011;4238;48.404;9.498;2022-12-20T05:31:41;15.50;;;11.53;;
8401;SDS011;4238;48.404;9.498;2022-12-20T05:34:10;15.70;;;11.17;;
8401;SDS011;4238;48.404;9.498;2022-12-20T05:36:36;17.30;;;11.43;;
8401;SDS011;4238;48.404;9.498;2022-12-20T05:39:03;13.13;;;11.30;;
8401;SDS011;4238;48.404;9.498;2022-12-20T05:41:31;14.37;;;11.50;;
8401;SDS011;4238;48.404;9.498;2022-12-20T05:43:58;15.13;;;12.60;;
8401;SDS011;4238;48.404;9.498;2022-12-20T05:46:24;14.07;;;11.30;;
8401;SDS011;4238;48.404;9.498;2022-12-20T05:48:51;12.53;;;10.57;;
8401;SDS011;4238;48.404;9.498;2022-12-20T05:51:20;13.80;;;11.07;;
8401;SDS011;4238;48.404;9.498;2022-12-20T05:53:47;18.17;;;11.57;;
8401;SDS011;4238;48.404;9.498;2022-12-20T05:56:13;18.43;;;13.27;;
8401;SDS011;4238;48.404;9.498;2022-12-20T05:58:40;15.43;;;12.07;;
8401;SDS011;4238;48.404;9.498;2022-12-20T06:01:07;17.73;;;14.00;;
8401;SDS011;4238;48.404;9.498;2022-12-20T06:03:35;18.20;;;13.67;;
8401;SDS011;4238;48.404;9.498;2022-12-20T06:06:02;17.47;;;12.20;;
8401;SDS011;4238;48.404;9.498;2022-12-20T06:08:31;15.43;;;10.70;;
8401;SDS011;4238;48.404;9.498;2022-12-20T06:10:58;14.57;;;11.17;;
8401;SDS011;4238;48.404;9.498;2022-12-20T06:13:26;13.80;;;9.67;;
8401;SDS011;4238;48.404;9.498;2022-12-20T06:15:53;15.43;;;9.70;;
8401;SDS011;4238;48.404;9.498;2022-12-20T06:18:19;13.17;;;10.50;;
8401;SDS011;4238;48.404;9.498;2022-12-20T06:20:48;13.70;;;9.77;;
8401;SDS011;4238;48.404;9.498;2022-12-20T06:23:15;15.33;;;10.53;;
8401;SDS011;4238;48.404;9.498;2022-12-20T06:25:43;15.20;;;10.77;;
8401;SDS011;4238;48.404;9.498;2022-12-20T06:28:10;15.27;;;10.33;;
8401;SDS011;4238;48.404;9.498;2022-12-20T06:30:38;16.17;;;11.60;;
8401;SDS011;4238;48.404;9.498;2022-12-20T06:33:05;15.83;;;12.13;;
8401;SDS011;4238;48.404;9.498;2022-12-20T06:35:31;17.67;;;11.83;;
8401;SDS011;4238;48.404;9.498;2022-12-20T06:37:58;16.77;;;11.47;;
8401;SDS011;4238;48.404;9.498;2022-12-20T06:40:25;19.33;;;12.73;;
8401;SDS011;4238;48.404;9.498;2022-12-20T06:42:53;15.13;;;12.17;;
8401;SDS011;4238;48.404;9.498;2022-12-20T06:45:20;14.83;;;11.97;;
8401;SDS011;4238;48.404;9.498;2022-12-20T06:47:47;17.60;;;12.77;;
8401;SDS011;4238;48.404;9.498;2022-12-20T06:50:14;18.30;;;12.37;;
8401;SDS011;4238;48.404;9.498;2022-12-20T06:52:41;15.17;;;11.10;;
8401;SDS011;4238;48.404;9.498;2022-12-20T06:55:08;14.57;;;10.17;;
8401;SDS011;4238;48.404;9.498;2022-12-20T06:57:35;13.07;;;9.47;;
8401;SDS011;4238;48.404;9.498;2022-12-20T07:00:04;14.87;;;10.00;;
8401;SDS011;4238;48.404;9.498;2022-12-20T07:02:32;12.40;;;9.10;;
8401;SDS011;4238;48.404;9.498;2022-12-20T07:04:59;10.90;;;8.63;;
8401;SDS011;4238;48.404;9.498;2022-12-20T07:07:26;16.97;;;11.47;;
8401;SDS011;4238;48.404;9.498;2022-12-20T07:09:53;24.30;;;14.63;;
8401;SDS011;4238;48.404;9.498;2022-12-20T07:12:20;42.43;;;19.67;;
8401;SDS011;4238;48.404;9.498;2022-12-20T07:14:47;89.77;;;34.10;;
8401;SDS011;4238;48.404;9.498;2022-12-20T07:17:17;83.83;;;32.77;;
8401;SDS011;4238;48.404;9.498;2022-12-20T07:19:44;59.47;;;23.60;;
8401;SDS011;4238;48.404;9.498;2022-12-20T07:22:11;121.67;;;50.30;;
8401;SDS011;4238;48.404;9.498;2022-12-20T07:24:38;132.32;;;61.58;;
8401;SDS011;4238;48.404;9.498;2022-12-20T07:27:05;52.83;;;26.73;;
8401;SDS011;4238;48.404;9.498;2022-12-20T07:29:32;55.23;;;26.50;;
8401;SDS011;4238;48.404;9.498;2022-12-20T07:32:00;113.03;;;44.73;;
8401;SDS011;4238;48.404;9.498;2022-12-20T07:34:28;27.07;;;15.10;;
8401;SDS011;4238;48.404;9.498;2022-12-20T07:36:55;57.40;;;26.80;;
8401;SDS011;4238;48.404;9.498;2022-12-20T07:39:22;25.63;;;15.40;;
8401;SDS011;4238;48.404;9.498;2022-12-20T07:41:51;43.07;;;22.43;;
8401;SDS011;4238;48.404;9.498;2022-12-20T07:44:18;16.40;;;10.27;;
8401;SDS011;4238;48.404;9.498;2022-12-20T07:46:46;8.63;;;7.47;;
8401;SDS011;4238;48.404;9.498;2022-12-20T07:49:13;10.17;;;8.30;;
8401;SDS011;4238;48.404;9.498;2022-12-20T07:51:42;14.40;;;11.13;;
8401;SDS011;4238;48.404;9.498;2022-12-20T07:54:12;9.83;;;8.10;;
8401;SDS011;4238;48.404;9.498;2022-12-20T07:56:42;18.47;;;13.57;;
8401;SDS011;4238;48.404;9.498;2022-12-20T07:59:11;17.57;;;12.30;;
8401;SDS011;4238;48.404;9.498;2022-12-20T08:01:41;13.47;;;11.03;;
8401;SDS011;4238;48.404;9.498;2022-12-20T08:04:10;15.83;;;10.33;;
8401;SDS011;4238;48.404;9.498;2022-12-20T08:06:42;39.53;;;23.60;;
8401;SDS011;4238;48.404;9.498;2022-12-20T08:09:09;50.03;;;27.70;;
8401;SDS011;4238;48.404;9.498;2022-12-20T08:11:38;20.53;;;14.10;;
8401;SDS011;4238;48.404;9.498;2022-12-20T08:14:07;10.37;;;8.43;;
8401;SDS011;4238;48.404;9.498;2022-12-20T08:16:35;13.20;;;8.63;;
8401;SDS011;4238;48.404;9.498;2022-12-20T08:19:02;10.07;;;7.30;;
8401;SDS011;4238;48.404;9.498;2022-12-20T08:21:28;9.07;;;7.03;;
8401;SDS011;4238;48.404;9.498;2022-12-20T08:23:57;7.17;;;5.90;;
8401;SDS011;4238;48.404;9.498;2022-12-20T08:26:24;9.10;;;6.50;;
8401;SDS011;4238;48.404;9.498;2022-12-20T08:28:51;31.07;;;9.20;;
8401;SDS011;4238;48.404;9.498;2022-12-20T08:31:20;7.53;;;5.40;;
8401;SDS011;4238;48.404;9.498;2022-12-20T08:33:47;11.70;;;7.60;;
8401;SDS011;4238;48.404;9.498;2022-12-20T08:36:14;5.90;;;5.30;;
8401;SDS011;4238;48.404;9.498;2022-12-20T08:38:41;6.90;;;5.40;;
8401;SDS011;4238;48.404;9.498;2022-12-20T08:41:10;6.40;;;5.60;;
8401;SDS011;4238;48.404;9.498;2022-12-20T08:43:38;7.90;;;7.10;;
8401;SDS011;4238;48.404;9.498;2022-12-20T08:46:06;10.73;;;9.53;;
8401;SDS011;4238;48.404;9.498;2022-12-20T08:48:34;7.80;;;6.10;;
8401;SDS011;4238;48.404;9.498;2022-12-20T08:51:01;5.47;;;4.87;;
8401;SDS011;4238;48.404;9.498;2022-12-20T08:53:30;6.80;;;5.67;;
8401;SDS011;4238;48.404;9.498;2022-12-20T08:56:02;5.67;;;5.17;;
8401;SDS011;4238;48.404;9.498;2022-12-20T08:58:32;6.43;;;4.93;;
8401;SDS011;4238;48.404;9.498;2022-12-20T09:01:00;6.63;;;5.43;;
8401;SDS011;4238;48.404;9.498;2022-12-20T09:03:29;14.77;;;10.67;;
8401;SDS011;4238;48.404;9.498;2022-12-20T09:05:56;12.40;;;9.37;;
8401;SDS011;4238;48.404;9.498;2022-12-20T09:08:24;9.40;;;7.30;;
8401;SDS011;4238;48.404;9.498;2022-12-20T09:10:52;13.57;;;8.70;;
8401;SDS011;4238;48.404;9.498;2022-12-20T09:13:19;10.47;;;8.13;;
8401;SDS011;4238;48.404;9.498;2022-12-20T09:15:48;10.67;;;7.70;;
8401;SDS011;4238;48.404;9.498;2022-12-20T09:18:15;9.50;;;6.77;;
8401;SDS011;4238;48.404;9.498;2022-12-20T09:20:42;5.77;;;5.17;;
8401;SDS011;4238;48.404;9.498;2022-12-20T09:23:10;4.70;;;4.27;;
8401;SDS011;4238;48.404;9.498;2022-12-20T09:25:37;4.23;;;3.63;;
8401;SDS011;4238;48.404;9.498;2022-12-20T09:28:04;4.63;;;4.03;;
8401;SDS011;4238;48.404;9.498;2022-12-20T09:30:31;4.03;;;3.63;;
8401;SDS011;4238;48.404;9.498;2022-12-20T09:33:00;5.20;;;4.00;;
8401;SDS011;4238;48.404;9.498;2022-12-20T09:35:27;4.63;;;4.00;;
8401;SDS011;4238;48.404;9.498;2022-12-20T09:37:54;7.63;;;6.87;;
8401;SDS011;4238;48.404;9.498;2022-12-20T09:40:22;8.83;;;7.73;;
8401;SDS011;4238;48.404;9.498;2022-12-20T09:42:52;5.10;;;3.73;;
8401;SDS011;4238;48.404;9.498;2022-12-20T09:45:21;6.60;;;5.90;;
8401;SDS011;4238;48.404;9.498;2022-12-20T09:47:51;5.57;;;3.80;;
8401;SDS011;4238;48.404;9.498;2022-12-20T09:50:20;5.53;;;5.00;;
8401;SDS011;4238;48.404;9.498;2022-12-20T09:52:59;3.77;;;3.33;;
8401;SDS011;4238;48.404;9.498;2022-12-20T09:55:38;4.53;;;3.70;;
8401;SDS011;4238;48.404;9.498;2022-12-20T09:58:13;4.73;;;4.03;;
8401;SDS011;4238;48.404;9.498;2022-12-20T10:00:52;10.90;;;9.87;;
8401;SDS011;4238;48.404;9.498;2022-12-20T10:03:20;5.67;;;4.60;;
8401;SDS011;4238;48.404;9.498;2022-12-20T10:05:51;5.80;;;5.17;;
8401;SDS011;4238;48.404;9.498;2022-12-20T10:08:23;4.07;;;3.67;;
8401;SDS011;4238;48.404;9.498;2022-12-20T10:11:01;5.20;;;4.73;;
8401;SDS011;4238;48.404;9.498;2022-12-20T10:13:37;5.50;;;5.00;;
8401;SDS011;4238;48.404;9.498;2022-12-20T10:16:16;4.87;;;4.33;;
8401;SDS011;4238;48.404;9.498;2022-12-20T10:18:57;6.33;;;4.77;;
8401;SDS011;4238;48.404;9.498;2022-12-20T10:21:37;10.63;;;7.37;;
8401;SDS011;4238;48.404;9.498;2022-12-20T10:24:12;13.73;;;8.07;;
8401;SDS011;4238;48.404;9.498;2022-12-20T10:26:43;11.20;;;7.63;;
8401;SDS011;4238;48.404;9.498;2022-12-20T10:29:10;15.70;;;8.40;;
8401;SDS011;4238;48.404;9.498;2022-12-20T10:31:37;15.00;;;9.00;;
8401;SDS011;4238;48.404;9.498;2022-12-20T10:34:05;12.07;;;7.60;;
8401;SDS011;4238;48.404;9.498;2022-12-20T10:36:33;6.87;;;6.03;;
8401;SDS011;4238;48.404;9.498;2022-12-20T10:39:03;4.43;;;3.40;;
8401;SDS011;4238;48.404;9.498;2022-12-20T10:41:33;3.40;;;3.10;;
8401;SDS011;4238;48.404;9.498;2022-12-20T10:44:15;3.40;;;3.10;;
8401;SDS011;4238;48.404;9.498;2022-12-20T10:46:49;4.20;;;3.43;;
8401;SDS011;4238;48.404;9.498;2022-12-20T10:49:26;4.73;;;4.30;;
8401;SDS011;4238;48.404;9.498;2022-12-20T10:51:58;6.63;;;4.90;;
8401;SDS011;4238;48.404;9.498;2022-12-20T10:54:31;4.70;;;4.23;;
8401;SDS011;4238;48.404;9.498;2022-12-20T10:56:59;8.67;;;5.97;;
8401;SDS011;4238;48.404;9.498;2022-12-20T10:59:30;6.17;;;5.47;;
8401;SDS011;4238;48.404;9.498;2022-12-20T11:01:59;4.97;;;4.17;;
8401;SDS011;4238;48.404;9.498;2022-12-20T11:04:28;5.73;;;5.13;;
8401;SDS011;4238;48.404;9.498;2022-12-20T11:06:58;4.60;;;3.87;;
8401;SDS011;4238;48.404;9.498;2022-12-20T11:09:28;3.73;;;3.43;;
8401;SDS011;4238;48.404;9.498;2022-12-20T11:11:57;3.80;;;3.40;;
8401;SDS011;4238;48.404;9.498;2022-12-20T11:14:29;4.90;;;2.80;;
8401;SDS011;4238;48.404;9.498;2022-12-20T11:16:57;4.13;;;3.63;;
8401;SDS011;4238;48.404;9.498;2022-12-20T11:19:30;3.93;;;3.53;;
8401;SDS011;4238;48.404;9.498;2022-12-20T11:22:11;10.97;;;8.50;;
8401;SDS011;4238;48.404;9.498;2022-12-20T11:24:52;39.03;;;25.40;;
8401;SDS011;4238;48.404;9.498;2022-12-20T11:27:27;25.53;;;17.70;;
8401;SDS011;4238;48.404;9.498;2022-12-20T11:30:03;10.37;;;8.23;;
8401;SDS011;4238;48.404;9.498;2022-12-20T11:32:39;9.27;;;7.80;;
8401;SDS011;4238;48.404;9.498;2022-12-20T11:35:17;7.67;;;6.97;;
8401;SDS011;4238;48.404;9.498;2022-12-20T11:37:52;12.23;;;9.63;;
8401;SDS011;4238;48.404;9.498;2022-12-20T11:40:29;19.13;;;14.23;;
8401;SDS011;4238;48.404;9.498;2022-12-20T11:43:14;15.50;;;12.63;;
8401;SDS011;4238;48.404;9.498;2022-12-20T11:45:58;12.53;;;9.97;;
8401;SDS011;4238;48.404;9.498;2022-12-20T11:51:32;15.60;;;10.77;;
8401;SDS011;4238;48.404;9.498;2022-12-20T11:54:08;19.77;;;14.03;;
8401;SDS011;4238;48.404;9.498;2022-12-20T11:56:40;18.50;;;13.60;;
8401;SDS011;4238;48.404;9.498;2022-12-20T11:59:10;15.57;;;11.73;;
8401;SDS011;4238;48.404;9.498;2022-12-20T12:01:45;11.67;;;10.43;;
8401;SDS011;4238;48.404;9.498;2022-12-20T12:04:18;12.80;;;11.27;;
8401;SDS011;4238;48.404;9.498;2022-12-20T12:06:47;12.30;;;10.97;;
8401;SDS011;4238;48.404;9.498;2022-12-20T12:09:22;11.00;;;9.20;;
8401;SDS011;4238;48.404;9.498;2022-12-20T12:11:54;9.97;;;8.10;;
8401;SDS011;4238;48.404;9.498;2022-12-20T12:14:32;10.60;;;6.80;;
8401;SDS011;4238;48.404;9.498;2022-12-20T12:17:07;6.07;;;5.47;;
8401;SDS011;4238;48.404;9.498;2022-12-20T12:19:43;6.80;;;5.20;;
8401;SDS011;4238;48.404;9.498;2022-12-20T12:22:15;6.63;;;4.60;;
8401;SDS011;4238;48.404;9.498;2022-12-20T12:24:50;7.03;;;5.20;;
8401;SDS011;4238;48.404;9.498;2022-12-20T12:27:22;5.47;;;4.87;;
8401;SDS011;4238;48.404;9.498;2022-12-20T12:29:51;9.93;;;7.43;;
8401;SDS011;4238;48.404;9.498;2022-12-20T12:32:20;5.83;;;5.33;;
8401;SDS011;4238;48.404;9.498;2022-12-20T12:34:56;4.50;;;4.17;;
8401;SDS011;4238;48.404;9.498;2022-12-20T12:37:53;4.47;;;3.80;;
8401;SDS011;4238;48.404;9.498;2022-12-20T12:43:40;3.77;;;3.47;;
8401;SDS011;4238;48.404;9.498;2022-12-20T12:46:12;5.83;;;4.10;;
8401;SDS011;4238;48.404;9.498;2022-12-20T12:48:42;11.33;;;8.90;;
8401;SDS011;4238;48.404;9.498;2022-12-20T12:51:14;11.83;;;10.53;;
8401;SDS011;4238;48.404;9.498;2022-12-20T12:53:48;14.23;;;10.33;;
8401;SDS011;4238;48.404;9.498;2022-12-20T12:59:08;38.00;;;27.27;;
8401;SDS011;4238;48.404;9.498;2022-12-20T13:01:46;42.63;;;29.27;;
8401;SDS011;4238;48.404;9.498;2022-12-20T13:04:25;24.73;;;15.63;;
8401;SDS011;4238;48.404;9.498;2022-12-20T13:06:54;12.63;;;11.03;;
8401;SDS011;4238;48.404;9.498;2022-12-20T13:09:48;6.13;;;5.20;;
8401;SDS011;4238;48.404;9.498;2022-12-20T13:18:19;4.47;;;3.60;;
8401;SDS011;4238;48.404;9.498;2022-12-20T13:23:43;3.80;;;3.40;;
8401;SDS011;4238;48.404;9.498;2022-12-20T13:29:20;8.80;;;7.53;;
8401;SDS011;4238;48.404;9.498;2022-12-20T13:31:49;11.57;;;8.53;;
8401;SDS011;4238;48.404;9.498;2022-12-20T13:37:02;10.30;;;9.10;;
8401;SDS011;4238;48.404;9.498;2022-12-20T13:39:30;6.90;;;5.60;;
8401;SDS011;4238;48.404;9.498;2022-12-20T13:42:15;7.73;;;6.03;;
8401;SDS011;4238;48.404;9.498;2022-12-20T13:45:02;6.83;;;6.03;;
8401;SDS011;4238;48.404;9.498;2022-12-20T13:47:31;8.80;;;6.43;;
8401;SDS011;4238;48.404;9.498;2022-12-20T13:50:17;9.80;;;7.40;;
8401;SDS011;4238;48.404;9.498;2022-12-20T13:52:59;9.47;;;7.87;;
8401;SDS011;4238;48.404;9.498;2022-12-20T13:55:35;6.97;;;5.83;;
8401;SDS011;4238;48.404;9.498;2022-12-20T13:58:09;8.37;;;4.93;;
8401;SDS011;4238;48.404;9.498;2022-12-20T14:00:39;7.17;;;5.73;;
8401;SDS011;4238;48.404;9.498;2022-12-20T14:03:11;4.27;;;3.87;;
8401;SDS011;4238;48.404;9.498;2022-12-20T14:05:50;4.20;;;3.80;;
8401;SDS011;4238;48.404;9.498;2022-12-20T14:08:22;3.80;;;3.50;;
8401;SDS011;4238;48.404;9.498;2022-12-20T14:10:52;12.93;;;8.60;;
8401;SDS011;4238;48.404;9.498;2022-12-20T14:13:20;12.17;;;9.00;;
8401;SDS011;4238;48.404;9.498;2022-12-20T14:15:49;98.03;;;51.37;;
8401;SDS011;4238;48.404;9.498;2022-12-20T14:18:18;44.67;;;26.30;;
8401;SDS011;4238;48.404;9.498;2022-12-20T14:20:46;31.17;;;20.23;;
8401;SDS011;4238;48.404;9.498;2022-12-20T14:23:16;15.97;;;10.37;;
8401;SDS011;4238;48.404;9.498;2022-12-20T14:25:46;18.30;;;12.13;;
8401;SDS011;4238;48.404;9.498;2022-12-20T14:28:17;9.67;;;7.60;;
8401;SDS011;4238;48.404;9.498;2022-12-20T14:30:51;11.30;;;9.50;;
8401;SDS011;4238;48.404;9.498;2022-12-20T14:33:18;13.30;;;11.00;;
8401;SDS011;4238;48.404;9.498;2022-12-20T14:35:48;6.07;;;5.30;;
8401;SDS011;4238;48.404;9.498;2022-12-20T14:38:20;7.47;;;6.10;;
8401;SDS011;4238;48.404;9.498;2022-12-20T14:40:47;9.67;;;5.60;;
8401;SDS011;4238;48.404;9.498;2022-12-20T14:43:14;9.63;;;6.73;;
8401;SDS011;4238;48.404;9.498;2022-12-20T14:45:49;3.67;;;3.37;;
8401;SDS011;4238;48.404;9.498;2022-12-20T14:48:31;3.93;;;3.60;;
8401;SDS011;4238;48.404;9.498;2022-12-20T14:50:58;7.30;;;5.60;;
8401;SDS011;4238;48.404;9.498;2022-12-20T14:53:25;5.27;;;4.77;;
8401;SDS011;4238;48.404;9.498;2022-12-20T14:55:53;12.03;;;8.33;;
8401;SDS011;4238;48.404;9.498;2022-12-20T14:58:22;8.07;;;6.30;;
8401;SDS011;4238;48.404;9.498;2022-12-20T15:00:56;7.87;;;6.53;;
8401;SDS011;4238;48.404;9.498;2022-12-20T15:03:25;4.97;;;4.47;;
8401;SDS011;4238;48.404;9.498;2022-12-20T15:05:53;6.77;;;6.10;;
8401;SDS011;4238;48.404;9.498;2022-12-20T15:08:21;7.27;;;6.60;;
8401;SDS011;4238;48.404;9.498;2022-12-20T15:10:55;5.60;;;4.73;;
8401;SDS011;4238;48.404;9.498;2022-12-20T15:13:26;12.97;;;9.03;;
8401;SDS011;4238;48.404;9.498;2022-12-20T15:16:01;10.73;;;9.20;;
8401;SDS011;4238;48.404;9.498;2022-12-20T15:18:29;7.03;;;6.33;;
8401;SDS011;4238;48.404;9.498;2022-12-20T15:20:59;7.60;;;5.87;;
8401;SDS011;4238;48.404;9.498;2022-12-20T15:23:28;4.33;;;3.93;;
8401;SDS011;4238;48.404;9.498;2022-12-20T15:25:56;4.87;;;3.67;;
8401;SDS011;4238;48.404;9.498;2022-12-20T15:28:23;5.03;;;3.83;;
8401;SDS011;4238;48.404;9.498;2022-12-20T15:30:51;4.10;;;3.70;;
8401;SDS011;4238;48.404;9.498;2022-12-20T15:33:21;4.30;;;3.90;;
8401;SDS011;4238;48.404;9.498;2022-12-20T15:35:50;4.23;;;3.83;;
8401;SDS011;4238;48.404;9.498;2022-12-20T15:38:18;5.40;;;3.80;;
8401;SDS011;4238;48.404;9.498;2022-12-20T15:40:47;4.43;;;4.03;;